createdAt,value
2018-03-15T00:02:01.169Z,4.00
2018-03-15T00:04:35.337Z,5.13
2018-03-15T00:07:04.288Z,4.80
2018-03-15T00:09:32.463Z,4.50
2018-03-15T00:12:00.630Z,5.17
2018-03-15T00:14:28.822Z,3.73
2018-03-15T00:16:57.013Z,4.10
2018-03-15T00:19:25.966Z,4.37
2018-03-15T00:21:54.137Z,4.43
2018-03-15T00:24:22.296Z,4.80
2018-03-15T00:26:50.454Z,4.33
2018-03-15T00:29:18.618Z,4.60
2018-03-15T00:31:47.556Z,4.43
2018-03-15T00:34:15.719Z,5.33
2018-03-15T00:36:43.871Z,5.03
2018-03-15T00:39:12.067Z,5.67
2018-03-15T00:41:40.227Z,5.00
2018-03-15T00:44:08.396Z,4.80
2018-03-15T00:46:36.550Z,5.33
2018-03-15T00:49:05.474Z,5.40
2018-03-15T00:51:33.664Z,6.20
2018-03-15T00:54:01.898Z,7.03
2018-03-15T00:56:30.837Z,5.83
2018-03-15T00:58:59.035Z,5.33
2018-03-15T01:01:27.962Z,6.53
2018-03-15T01:03:56.890Z,6.03
2018-03-15T01:06:25.080Z,5.93
2018-03-15T01:08:53.248Z,6.27
2018-03-15T01:11:21.410Z,6.77
2018-03-15T01:13:49.581Z,5.70
2018-03-15T01:16:17.764Z,6.53
2018-03-15T01:18:46.053Z,7.80
2018-03-15T01:21:14.227Z,7.40
2018-03-15T01:23:42.399Z,7.20
2018-03-15T01:26:10.558Z,7.00
2018-03-15T01:28:38.710Z,8.70
2018-03-15T01:31:06.874Z,6.90
2018-03-15T01:33:35.810Z,6.63
2018-03-15T01:36:03.977Z,6.67
2018-03-15T01:38:32.155Z,7.50
2018-03-15T01:41:00.421Z,7.77
2018-03-15T01:43:28.578Z,6.93
2018-03-15T01:45:56.729Z,6.20
2018-03-15T01:48:25.670Z,7.27
2018-03-15T01:50:54.218Z,6.97
2018-03-15T01:53:22.382Z,8.20
2018-03-15T01:55:51.321Z,7.20
2018-03-15T01:58:19.482Z,6.20
2018-03-15T02:00:47.638Z,8.50
2018-03-15T02:03:15.803Z,9.13
2018-03-15T02:05:44.731Z,7.80
2018-03-15T02:08:12.887Z,6.77
2018-03-15T02:10:41.050Z,7.73
2018-03-15T02:13:09.226Z,7.13
2018-03-15T02:15:37.385Z,9.37
2018-03-15T02:18:06.316Z,7.53
2018-03-15T02:20:34.476Z,8.63
2018-03-15T02:23:02.634Z,6.83
2018-03-15T02:25:31.561Z,7.83
2018-03-15T02:27:59.715Z,7.63
2018-03-15T02:30:27.886Z,7.70
2018-03-15T02:32:56.064Z,7.60
2018-03-15T02:35:24.227Z,8.37
2018-03-15T02:37:52.428Z,8.60
2018-03-15T02:40:20.583Z,7.83
2018-03-15T02:42:48.751Z,8.63
2018-03-15T02:45:16.933Z,9.63
2018-03-15T02:47:45.090Z,8.00
2018-03-15T02:50:14.038Z,7.80
2018-03-15T02:52:42.202Z,6.90
2018-03-15T02:55:10.351Z,7.77
2018-03-15T02:57:38.526Z,8.00
2018-03-15T03:00:06.677Z,8.50
2018-03-15T03:02:35.622Z,7.03
2018-03-15T03:05:03.779Z,11.43
2018-03-15T03:07:31.973Z,6.00
2018-03-15T03:10:00.144Z,6.80
2018-03-15T03:12:28.328Z,8.50
2018-03-15T03:14:56.488Z,8.77
2018-03-15T03:17:24.639Z,9.30
2018-03-15T03:19:52.826Z,9.40
2018-03-15T03:22:20.979Z,7.33
2018-03-15T03:24:49.139Z,9.23
2018-03-15T03:27:19.146Z,8.93
2018-03-15T03:29:48.085Z,8.90
2018-03-15T03:32:16.582Z,9.90
2018-03-15T03:34:44.750Z,10.87
2018-03-15T03:37:12.905Z,8.03
2018-03-15T03:39:41.066Z,8.43
2018-03-15T03:42:09.991Z,10.73
2018-03-15T03:44:38.165Z,9.30
2018-03-15T03:47:06.331Z,9.90
2018-03-15T03:49:34.482Z,9.73
2018-03-15T03:52:02.645Z,8.93
2018-03-15T03:54:31.575Z,10.77
2018-03-15T03:56:59.733Z,9.43
2018-03-15T03:59:27.899Z,10.80
2018-03-15T04:01:56.082Z,9.73
2018-03-15T04:04:24.246Z,9.00
2018-03-15T04:06:52.413Z,9.60
2018-03-15T04:09:21.356Z,13.37
2018-03-15T04:11:49.509Z,9.83
2018-03-15T04:14:17.663Z,11.17
2018-03-15T04:16:45.830Z,11.07
2018-03-15T04:19:14.766Z,11.20
2018-03-15T04:21:42.928Z,11.67
2018-03-15T04:24:11.111Z,9.73
2018-03-15T04:26:39.298Z,14.03
2018-03-15T04:29:07.458Z,13.03
2018-03-15T04:31:35.622Z,12.23
2018-03-15T04:34:03.785Z,13.37
2018-03-15T04:36:31.982Z,14.50
2018-03-15T04:39:00.148Z,12.90
2018-03-15T04:41:28.320Z,16.77
2018-03-15T04:43:56.486Z,15.67
2018-03-15T04:46:24.657Z,15.67
2018-03-15T04:48:52.818Z,15.63
2018-03-15T04:51:20.987Z,15.50
2018-03-15T04:53:49.181Z,15.03
2018-03-15T04:56:17.374Z,16.33
2018-03-15T04:58:45.550Z,13.47
2018-03-15T05:01:13.710Z,16.47
2018-03-15T05:03:41.871Z,18.10
2018-03-15T05:06:10.039Z,20.17
2018-03-15T05:08:38.203Z,17.37
2018-03-15T05:11:07.130Z,22.17
2018-03-15T05:13:35.338Z,19.50
2018-03-15T05:16:03.506Z,21.20
2018-03-15T05:18:31.715Z,17.70
2018-03-15T05:20:59.881Z,18.07
2018-03-15T05:23:28.830Z,18.87
2018-03-15T05:25:56.998Z,17.87
2018-03-15T05:28:25.178Z,18.30
2018-03-15T05:30:53.399Z,18.63
2018-03-15T05:33:22.353Z,19.20
2018-03-15T05:35:50.543Z,20.00
2018-03-15T05:38:18.712Z,17.73
2018-03-15T05:40:46.903Z,22.27
2018-03-15T05:43:15.068Z,22.90
2018-03-15T05:45:43.240Z,19.87
2018-03-15T05:48:11.423Z,20.80
2018-03-15T05:50:39.591Z,23.80
2018-03-15T05:53:07.751Z,28.43
2018-03-15T05:55:35.921Z,22.60
2018-03-15T05:58:04.104Z,18.53
2018-03-15T06:00:32.262Z,19.37
2018-03-15T06:03:00.423Z,19.93
2018-03-15T06:05:29.366Z,18.17
2018-03-15T06:07:57.551Z,17.23
2018-03-15T06:10:25.726Z,16.27
2018-03-15T06:12:53.898Z,17.97
2018-03-15T06:15:22.091Z,22.63
2018-03-15T06:17:50.262Z,17.80
2018-03-15T06:20:18.430Z,17.10
2018-03-15T06:22:47.365Z,18.40
2018-03-15T06:25:16.310Z,18.67
2018-03-15T06:27:44.511Z,17.43
2018-03-15T06:30:12.701Z,20.67
2018-03-15T06:32:41.684Z,19.17
2018-03-15T06:35:10.639Z,15.63
2018-03-15T06:37:38.812Z,18.53
2018-03-15T06:40:06.973Z,13.27
2018-03-15T06:42:35.166Z,18.70
2018-03-15T06:45:03.338Z,12.50
2018-03-15T06:47:31.537Z,14.97
2018-03-15T06:49:59.747Z,15.67
2018-03-15T06:52:27.920Z,18.40
2018-03-15T06:54:56.080Z,14.50
2018-03-15T06:57:25.027Z,14.97
2018-03-15T06:59:53.204Z,18.90
2018-03-15T07:02:21.382Z,14.77
2018-03-15T07:04:49.553Z,17.00
2018-03-15T07:07:17.728Z,16.00
2018-03-15T07:09:45.896Z,18.20
2018-03-15T07:12:14.077Z,20.47
2018-03-15T07:14:42.248Z,16.43
2018-03-15T07:17:10.422Z,16.57
2018-03-15T07:19:38.602Z,22.53
2018-03-15T07:22:06.797Z,24.20
2018-03-15T07:24:35.032Z,19.50
2018-03-15T07:27:03.226Z,23.70
2018-03-15T07:29:32.195Z,25.87
2018-03-15T07:32:00.391Z,25.43
2018-03-15T07:34:28.557Z,22.13
2018-03-15T07:36:56.732Z,24.70
2018-03-15T07:39:25.015Z,22.23
2018-03-15T07:41:53.152Z,24.40
2018-03-15T07:44:21.319Z,24.77
2018-03-15T07:46:50.259Z,24.47
2018-03-15T07:49:18.428Z,27.20
2018-03-15T07:51:46.589Z,22.43
2018-03-15T07:54:14.786Z,23.33
2018-03-15T07:56:42.949Z,23.17
2018-03-15T07:59:11.215Z,25.83
2018-03-15T08:01:39.380Z,24.50
2018-03-15T08:04:07.534Z,24.80
2018-03-15T08:06:36.462Z,25.83
2018-03-15T08:09:04.674Z,27.17
2018-03-15T08:11:32.887Z,27.10
2018-03-15T08:14:01.022Z,18.60
2018-03-15T08:16:29.186Z,21.20
2018-03-15T08:18:57.361Z,25.00
2018-03-15T08:21:25.523Z,26.20
2018-03-15T08:23:53.687Z,25.03
2018-03-15T08:26:21.860Z,26.13
2018-03-15T08:28:50.053Z,21.93
2018-03-15T08:31:18.214Z,24.20
2018-03-15T08:33:46.381Z,19.13
2018-03-15T08:36:14.567Z,17.60
2018-03-15T08:38:42.763Z,19.50
2018-03-15T08:41:10.927Z,18.57
2018-03-15T08:43:39.099Z,18.47
2018-03-15T08:46:07.265Z,18.83
2018-03-15T08:48:35.422Z,20.43
2018-03-15T08:51:03.598Z,17.90
2018-03-15T08:53:31.769Z,22.20
2018-03-15T08:55:59.927Z,21.60
2018-03-15T08:58:28.119Z,25.53
2018-03-15T09:00:56.288Z,22.80
2018-03-15T09:03:24.447Z,19.13
2018-03-15T09:05:52.708Z,19.93
2018-03-15T09:08:20.804Z,21.20
2018-03-15T09:10:48.962Z,22.17
2018-03-15T09:13:17.889Z,21.27
2018-03-15T09:15:46.109Z,18.20
2018-03-15T09:18:14.301Z,17.83
2018-03-15T09:20:43.231Z,18.10
2018-03-15T09:23:11.394Z,19.17
2018-03-15T09:25:39.623Z,21.43
2018-03-15T09:28:08.567Z,29.73
2018-03-15T09:30:36.744Z,22.63
2018-03-15T09:33:05.025Z,21.13
2018-03-15T09:35:33.200Z,21.70
2018-03-15T09:38:02.175Z,22.10
2018-03-15T09:40:30.364Z,25.93
2018-03-15T09:42:58.577Z,21.40
2018-03-15T09:45:27.546Z,25.27
2018-03-15T09:47:55.725Z,22.50
2018-03-15T09:50:23.910Z,24.83
2018-03-15T09:52:52.099Z,23.87
2018-03-15T09:55:21.074Z,28.60
2018-03-15T09:57:49.239Z,26.40
2018-03-15T10:00:17.564Z,26.00
2018-03-15T10:02:45.772Z,25.43
2018-03-15T10:05:13.969Z,24.40
2018-03-15T10:07:42.173Z,23.97
2018-03-15T10:10:11.133Z,26.33
2018-03-15T10:12:39.315Z,22.83
2018-03-15T10:15:07.528Z,31.60
2018-03-15T10:17:36.474Z,19.73
2018-03-15T10:20:04.660Z,21.33
2018-03-15T10:22:32.857Z,25.90
2018-03-15T10:25:13.606Z,24.67
2018-03-15T10:27:30.038Z,24.40
2018-03-15T10:29:59.016Z,24.43
2018-03-15T10:32:27.187Z,24.13
2018-03-15T10:35:01.797Z,23.93
2018-03-15T10:37:30.020Z,21.40
2018-03-15T10:39:58.205Z,20.80
2018-03-15T10:42:26.411Z,23.57
2018-03-15T10:44:54.604Z,23.63
2018-03-15T10:47:22.779Z,26.43
2018-03-15T10:49:50.970Z,26.37
2018-03-15T10:52:19.179Z,25.93
2018-03-15T10:54:47.374Z,24.87
2018-03-15T10:57:15.568Z,22.10
2018-03-15T10:59:43.779Z,24.10
2018-03-15T11:02:18.200Z,23.37
2018-03-15T11:04:52.682Z,24.00
2018-03-15T11:07:26.382Z,25.23
2018-03-15T11:09:54.570Z,21.37
2018-03-15T11:12:22.766Z,22.40
2018-03-15T11:14:51.719Z,22.33
2018-03-15T11:17:19.942Z,24.67
2018-03-15T11:19:48.897Z,19.37
2018-03-15T11:22:17.090Z,20.60
2018-03-15T11:24:45.280Z,23.60
2018-03-15T11:27:14.247Z,19.53
2018-03-15T11:29:42.449Z,21.50
2018-03-15T11:32:11.420Z,19.10
2018-03-15T11:34:39.603Z,21.63
2018-03-15T11:37:08.565Z,21.17
2018-03-15T11:39:36.944Z,18.10
2018-03-15T11:42:05.186Z,17.00
2018-03-15T11:44:33.374Z,19.73
2018-03-15T11:47:01.601Z,20.77
2018-03-15T11:49:29.794Z,20.77
2018-03-15T11:51:58.756Z,18.60
2018-03-15T11:54:26.953Z,18.07
2018-03-15T11:56:55.923Z,18.37
2018-03-15T11:59:24.120Z,21.33
2018-03-15T12:01:53.085Z,29.80
2018-03-15T12:04:21.274Z,24.70
2018-03-15T12:06:49.466Z,19.77
2018-03-15T12:09:18.450Z,19.43
2018-03-15T12:11:47.410Z,18.47
2018-03-15T12:14:15.606Z,18.40
2018-03-15T12:16:43.800Z,16.73
2018-03-15T12:19:11.977Z,17.60
2018-03-15T12:21:40.157Z,19.50
2018-03-15T12:24:09.102Z,18.40
2018-03-15T12:26:37.272Z,17.37
2018-03-15T12:29:05.448Z,18.53
2018-03-15T12:31:33.622Z,17.63
2018-03-15T12:34:01.795Z,22.23
2018-03-15T12:36:29.984Z,15.50
2018-03-15T12:38:58.154Z,21.90
2018-03-15T12:41:26.333Z,17.10
2018-03-15T12:43:54.514Z,18.77
2018-03-15T12:46:22.684Z,16.27
2018-03-15T12:48:50.858Z,16.40
2018-03-15T12:51:19.043Z,17.73
2018-03-15T12:53:47.236Z,19.63
2018-03-15T12:56:15.420Z,19.90
2018-03-15T12:58:44.363Z,17.30
2018-03-15T13:01:12.532Z,17.70
2018-03-15T13:03:40.694Z,17.70
2018-03-15T13:06:08.897Z,17.80
2018-03-15T13:08:37.083Z,16.70
2018-03-15T13:11:05.262Z,18.67
2018-03-15T13:13:33.430Z,19.77
2018-03-15T13:16:01.599Z,17.83
2018-03-15T13:18:29.770Z,20.47
2018-03-15T13:20:57.935Z,18.10
2018-03-15T13:23:26.135Z,19.77
2018-03-15T13:25:54.311Z,28.07
2018-03-15T13:28:22.528Z,23.07
2018-03-15T13:30:50.692Z,24.67
2018-03-15T13:33:19.639Z,17.60
2018-03-15T13:35:47.799Z,16.70
2018-03-15T13:38:15.982Z,17.20
2018-03-15T13:40:44.148Z,16.97
2018-03-15T13:43:12.325Z,18.47
2018-03-15T13:45:40.517Z,17.80
2018-03-15T13:48:08.687Z,16.20
2018-03-15T13:50:36.860Z,17.93
2018-03-15T13:53:05.042Z,17.73
2018-03-15T13:55:33.219Z,19.23
2018-03-15T13:58:01.383Z,16.43
2018-03-15T14:00:29.562Z,16.77
2018-03-15T14:02:57.735Z,17.67
2018-03-15T14:05:25.911Z,18.93
2018-03-15T14:07:54.115Z,17.80
2018-03-15T14:10:22.282Z,17.10
2018-03-15T14:12:50.462Z,16.70
2018-03-15T14:15:18.635Z,16.73
2018-03-15T14:17:46.851Z,17.23
2018-03-15T14:20:15.793Z,18.53
2018-03-15T14:22:43.981Z,16.30
2018-03-15T14:25:12.151Z,17.87
2018-03-15T14:27:40.329Z,20.17
2018-03-15T14:30:08.536Z,16.70
2018-03-15T14:32:36.706Z,17.13
2018-03-15T14:35:04.875Z,20.77
2018-03-15T14:37:33.840Z,18.77
2018-03-15T14:40:02.007Z,15.73
2018-03-15T14:42:30.191Z,18.13
2018-03-15T14:44:58.367Z,18.03
2018-03-15T14:47:26.545Z,16.90
2018-03-15T14:49:54.727Z,16.87
2018-03-15T14:52:23.666Z,16.57
2018-03-15T14:54:51.846Z,19.23
2018-03-15T14:57:20.015Z,17.67
2018-03-15T14:59:48.190Z,19.13
2018-03-15T15:02:16.367Z,20.30
2018-03-15T15:04:44.534Z,24.30
2018-03-15T15:07:12.698Z,20.07
2018-03-15T15:09:40.869Z,17.83
2018-03-15T15:12:09.044Z,17.43
2018-03-15T15:14:37.218Z,17.90
2018-03-15T15:17:05.399Z,19.07
2018-03-15T15:19:33.584Z,18.27
2018-03-15T15:22:01.768Z,19.13
2018-03-15T15:24:29.973Z,21.80
2018-03-15T15:26:58.151Z,19.47
2018-03-15T15:29:26.332Z,24.30
2018-03-15T15:31:54.502Z,18.43
2018-03-15T15:34:22.675Z,22.27
2018-03-15T15:36:50.857Z,19.23
2018-03-15T15:39:19.819Z,21.03
2018-03-15T15:41:47.994Z,21.57
2018-03-15T15:44:16.930Z,22.60
2018-03-15T15:46:45.867Z,22.67
2018-03-15T15:49:14.034Z,20.50
2018-03-15T15:51:42.207Z,28.13
2018-03-15T15:54:10.382Z,23.20
2018-03-15T15:56:38.552Z,26.07
2018-03-15T15:59:06.727Z,21.00
2018-03-15T16:01:34.912Z,21.23
2018-03-15T16:04:03.106Z,19.17
2018-03-15T16:06:31.282Z,24.13
2018-03-15T16:08:59.449Z,21.07
2018-03-15T16:11:27.656Z,20.73
2018-03-15T16:13:56.619Z,22.50
2018-03-15T16:16:24.819Z,32.83
2018-03-15T16:18:52.993Z,21.67
2018-03-15T16:21:26.054Z,25.97
2018-03-15T16:23:54.227Z,22.20
2018-03-15T16:26:22.486Z,25.33
2018-03-15T16:28:50.687Z,19.97
2018-03-15T16:31:18.895Z,21.53
2018-03-15T16:33:51.399Z,21.43
2018-03-15T16:36:19.568Z,19.10
2018-03-15T16:38:47.739Z,21.60
2018-03-15T16:41:16.141Z,30.20
2018-03-15T16:43:49.486Z,23.27
2018-03-15T16:46:20.005Z,32.23
2018-03-15T16:48:48.355Z,19.90
2018-03-15T16:51:16.750Z,20.80
2018-03-15T16:53:48.125Z,22.57
2018-03-15T16:56:17.069Z,21.90
2018-03-15T16:58:45.782Z,22.80
2018-03-15T17:01:14.863Z,22.87
2018-03-15T17:03:43.046Z,21.23
2018-03-15T17:06:11.986Z,33.73
2018-03-15T17:08:40.942Z,54.63
2018-03-15T17:11:09.130Z,40.40
2018-03-15T17:13:37.331Z,35.57
2018-03-15T17:16:06.270Z,41.83
2018-03-15T17:18:34.443Z,29.27
2018-03-15T17:21:02.637Z,30.53
2018-03-15T17:23:30.824Z,30.73
2018-03-15T17:25:58.998Z,25.23
2018-03-15T17:28:27.167Z,22.17
2018-03-15T17:30:55.346Z,21.83
2018-03-15T17:33:23.528Z,21.07
2018-03-15T17:35:52.475Z,20.97
2018-03-15T17:38:20.652Z,25.23
2018-03-15T17:40:48.836Z,23.33
2018-03-15T17:43:17.023Z,23.87
2018-03-15T17:45:45.202Z,30.47
2018-03-15T17:48:13.378Z,23.10
2018-03-15T17:50:41.564Z,26.67
2018-03-15T17:53:10.522Z,28.03
2018-03-15T17:55:38.694Z,19.93
2018-03-15T17:58:06.874Z,26.27
2018-03-15T18:00:35.043Z,27.63
2018-03-15T18:03:03.213Z,25.50
2018-03-15T18:05:31.394Z,25.70
2018-03-15T18:07:59.586Z,25.33
2018-03-15T18:10:27.775Z,22.87
2018-03-15T18:12:55.977Z,23.80
2018-03-15T18:15:24.172Z,23.60
2018-03-15T18:17:52.360Z,25.40
2018-03-15T18:20:20.539Z,27.10
2018-03-15T18:22:48.773Z,24.10
2018-03-15T18:25:16.917Z,25.23
2018-03-15T18:27:45.112Z,27.37
2018-03-15T18:30:14.150Z,28.07
2018-03-15T18:32:42.331Z,25.80
2018-03-15T18:35:10.506Z,23.70
2018-03-15T18:37:39.459Z,31.20
2018-03-15T18:40:08.393Z,29.80
2018-03-15T18:42:45.332Z,25.93
2018-03-15T18:45:19.396Z,27.10
2018-03-15T18:47:47.595Z,29.10
2018-03-15T18:50:15.777Z,27.60
2018-03-15T18:52:44.719Z,24.93
2018-03-15T18:55:13.300Z,22.67
2018-03-15T18:57:45.489Z,22.60
2018-03-15T19:00:15.057Z,21.43
2018-03-15T19:02:43.270Z,17.33
2018-03-15T19:05:11.504Z,16.87
2018-03-15T19:07:39.685Z,15.83
2018-03-15T19:10:08.610Z,16.20
2018-03-15T19:12:37.783Z,19.37
2018-03-15T19:15:06.480Z,18.60
2018-03-15T19:17:34.677Z,21.93
2018-03-15T19:20:08.551Z,16.73
2018-03-15T19:22:36.751Z,9.53
2018-03-15T19:25:04.937Z,15.33
2018-03-15T19:27:33.735Z,9.60
2018-03-15T19:30:06.260Z,9.87
2018-03-15T19:32:34.422Z,8.93
2018-03-15T19:35:03.353Z,9.53
2018-03-15T19:37:32.316Z,10.00
2018-03-15T19:40:05.563Z,6.90
2018-03-15T19:42:34.748Z,7.60
2018-03-15T19:45:02.915Z,8.67
2018-03-15T19:47:31.092Z,6.13
2018-03-15T19:50:03.518Z,6.17
2018-03-15T19:52:35.686Z,6.17
2018-03-15T19:55:04.978Z,8.13
2018-03-15T19:57:39.127Z,5.60
2018-03-15T20:00:07.532Z,6.70
2018-03-15T20:02:35.945Z,6.37
2018-03-15T20:05:04.348Z,6.30
2018-03-15T20:07:33.266Z,5.57
2018-03-15T20:10:01.461Z,5.93
2018-03-15T20:12:32.252Z,8.03
2018-03-15T20:15:04.454Z,7.10
2018-03-15T20:17:32.627Z,7.43
2018-03-15T20:20:01.716Z,12.30
2018-03-15T20:22:35.570Z,7.97
2018-03-15T20:25:04.515Z,7.20
2018-03-15T20:27:41.907Z,13.13
2018-03-15T20:30:14.979Z,9.53
2018-03-15T20:32:49.153Z,13.70
2018-03-15T20:35:23.070Z,13.97
2018-03-15T20:37:52.021Z,7.37
2018-03-15T20:40:25.846Z,10.80
2018-03-15T20:42:54.017Z,8.83
2018-03-15T20:45:27.667Z,10.67
2018-03-15T20:48:02.091Z,7.07
2018-03-15T20:50:30.270Z,4.73
2018-03-15T20:52:58.452Z,10.00
2018-03-15T20:55:26.621Z,9.07
2018-03-15T20:57:54.816Z,6.70
2018-03-15T21:00:22.989Z,12.33
2018-03-15T21:02:51.172Z,6.83
2018-03-15T21:05:19.398Z,9.50
2018-03-15T21:07:47.579Z,7.80
2018-03-15T21:10:16.524Z,9.77
2018-03-15T21:12:44.702Z,10.87
2018-03-15T21:15:13.643Z,9.40
2018-03-15T21:17:41.850Z,11.10
2018-03-15T21:20:10.082Z,12.17
2018-03-15T21:22:39.031Z,8.23
2018-03-15T21:25:07.207Z,8.20
2018-03-15T21:27:35.403Z,8.90
2018-03-15T21:30:03.586Z,8.57
2018-03-15T21:32:31.777Z,10.40
2018-03-15T21:35:00.745Z,7.53
2018-03-15T21:37:28.922Z,8.33
2018-03-15T21:39:57.113Z,15.47
2018-03-15T21:42:26.064Z,8.93
2018-03-15T21:44:54.254Z,19.50
2018-03-15T21:47:22.436Z,11.70
2018-03-15T21:49:50.623Z,11.07
2018-03-15T21:52:18.815Z,15.00
2018-03-15T21:54:47.751Z,22.17
2018-03-15T21:57:15.953Z,22.60
2018-03-15T21:59:44.121Z,23.43
2018-03-15T22:02:12.295Z,23.30
2018-03-15T22:04:40.772Z,20.03
2018-03-15T22:07:08.957Z,21.10
2018-03-15T22:09:37.147Z,30.37
2018-03-15T22:12:06.827Z,45.53
2018-03-15T22:14:34.994Z,32.17
2018-03-15T22:17:03.178Z,28.53
2018-03-15T22:19:31.349Z,19.47
2018-03-15T22:21:59.528Z,22.43
2018-03-15T22:24:27.716Z,27.10
2018-03-15T22:26:55.907Z,19.77
2018-03-15T22:29:24.847Z,21.03
2018-03-15T22:31:53.023Z,30.03
2018-03-15T22:34:21.196Z,30.10
2018-03-15T22:36:49.370Z,21.27
2018-03-15T22:39:17.542Z,31.30
2018-03-15T22:41:45.722Z,18.33
2018-03-15T22:44:13.893Z,15.60
2018-03-15T22:46:42.066Z,17.10
2018-03-15T22:49:10.236Z,16.03
2018-03-15T22:51:38.395Z,18.73
2018-03-15T22:54:06.562Z,16.40
2018-03-15T22:56:35.492Z,20.70
2018-03-15T22:59:03.657Z,17.73
2018-03-15T23:01:31.830Z,19.30
2018-03-15T23:03:59.993Z,21.77
2018-03-15T23:06:28.155Z,16.93
2018-03-15T23:08:56.315Z,12.43
2018-03-15T23:11:25.239Z,12.23
2018-03-15T23:13:53.402Z,10.43
2018-03-15T23:16:21.574Z,9.30
2018-03-15T23:18:49.757Z,8.93
2018-03-15T23:21:17.925Z,9.23
2018-03-15T23:23:46.078Z,6.03
2018-03-15T23:26:15.003Z,8.37
2018-03-15T23:28:43.289Z,11.23
2018-03-15T23:31:11.448Z,10.83
2018-03-15T23:33:39.620Z,11.53
2018-03-15T23:36:07.779Z,10.93
2018-03-15T23:38:36.713Z,8.20
2018-03-15T23:41:04.877Z,11.37
2018-03-15T23:43:33.059Z,20.33
2018-03-15T23:46:01.235Z,14.30
2018-03-15T23:48:29.414Z,13.53
2018-03-15T23:50:57.576Z,13.30
2018-03-15T23:53:25.752Z,28.80
2018-03-15T23:55:53.910Z,20.30
2018-03-15T23:58:22.073Z,13.87
